Bei Facebook empfehlenBei Twitter postenGoogle plusPinterest

Das Wetter im Erzgebirge am 29.01.2017

Wetter und Klima am 29.01.2017 Holzhau im Erzgebirge (630m ü.NN)
Letzte gemessene Temperatur und Uhrzeit der Messung23:45:00 Uhr-4.70 °C
Temperatur (Maximum / Höchstwert) und Uhrzeit der Messung14:00:00 Uhr7.10 °C
Temperatur (Minimum / Tiefstwert) und Uhrzeit der Messung00:30:00-9.80 °C
Errechneter Absolutwert der Temperaturschwankungen zwischen Tmin und Tmax des Tages16.90 K
Errechnete Tagesmitteltemperatur-2.94479 °C
Gesamt - Niederschlag des Tages (in flüssiger Form)3.10 Liter / m²
Luftdruck (Maximum / Höchstwert) und Zeitpunkt der Messung10:00:00 Uhr1018.80 hPa
Luftdruck (Minimum / Tiefstwert) und Zeitpunkt der Messung22:30:00 Uhr1016.90 hPa
Errechneter Absolutwert der Luftdruckschwankungen des Tages1.90 hPa
Höchste gemessene Windgeschwindigkeit und Uhrzeit der Messung06:15:00 Uhr15.12 km/h
Errechnete Windhäufigkeit in Relation zu den Messwerten des Tages54.16667 %
Niedrigste Windkühle (Windchill) und Zeitpunkt der Messung06:15:00 Uhr-14.40 °C
Taupunkt (Maximum / Höchstwert) und Uhrzeit der Messung12:00:00 Uhr2.50 °C
Taupunkt (Minimum / Tiefstwert) und Uhrzeit der Messung00:30:00-11.80 °C
Anzahl der automatisch eingelesenen Messwerte 96

Detaillierte Wetter- und Klima- Messwerte für den 29.01.2017 in Holzhau im Erzgebirge (630m ü.NN)
ZeitTemperaturLuftdruckRel. LuftfeuchteWindWindrichtungWindchillTaupunktNiederschlag l/m²
23:45:00-4.70 °C1017.10 hPa90.00 %-6.30 °C3.10
23:30:00-4.60 °C1017.40 hPa90.00 %-6.20 °C3.10
23:15:00-4.30 °C1017.30 hPa91.00 %1.80 km/hSSO-4.30 °C-5.70 °C3.10
23:00:00-4.40 °C1017.30 hPa90.00 %2.16 km/hSSO-4.40 °C-6.00 °C3.10
22:45:00-4.40 °C1017.10 hPa90.00 %-6.00 °C3.10
22:30:00-4.50 °C1016.90 hPa90.00 %1.80 km/hSSO-4.50 °C-6.10 °C3.10
22:15:00-4.30 °C1017.00 hPa90.00 %-5.90 °C3.10
22:00:00-4.30 °C1016.90 hPa90.00 %-5.90 °C3.10
21:45:00-4.30 °C1017.00 hPa89.00 %-6.00 °C3.10
21:30:00-4.40 °C1017.10 hPa89.00 %-6.10 °C3.10
21:15:00-4.50 °C1017.10 hPa89.00 %-6.20 °C3.10
21:00:00-4.40 °C1017.30 hPa89.00 %-6.10 °C3.10
20:45:00-4.40 °C1017.40 hPa88.00 %-6.30 °C3.10
20:30:00-4.40 °C1017.60 hPa87.00 %-6.50 °C3.10
20:15:00-4.50 °C1017.60 hPa87.00 %-6.60 °C3.10
20:00:00-4.70 °C1017.70 hPa86.00 %-6.90 °C3.10
19:45:00-4.50 °C1017.80 hPa85.00 %-6.90 °C3.10
19:30:00-4.40 °C1017.80 hPa85.00 %-6.80 °C3.10
19:15:00-4.10 °C1017.80 hPa85.00 %-6.50 °C3.10
19:00:00-3.80 °C1017.70 hPa84.00 %-6.40 °C3.10
18:45:00-3.40 °C1017.70 hPa84.00 %1.08 km/hSSW-3.40 °C-6.00 °C3.10
18:30:00-2.80 °C1017.70 hPa84.00 %-5.40 °C3.10
18:15:00-2.20 °C1017.80 hPa85.00 %-4.60 °C3.10
18:00:00-2.20 °C1017.80 hPa84.00 %-4.80 °C3.10
17:45:00-1.90 °C1017.80 hPa82.00 %-4.90 °C3.10
17:30:00-1.80 °C1018.00 hPa80.00 %-5.10 °C3.10
17:15:00-1.10 °C1018.00 hPa79.00 %-4.60 °C3.10
17:00:00-0.10 °C1017.90 hPa77.00 %-4.10 °C3.10
16:45:000.50 °C1017.80 hPa76.00 %-3.20 °C3.10
16:30:001.90 °C1017.80 hPa72.00 %2.52 km/hS1.90 °C-2.60 °C3.10
16:15:002.90 °C1017.70 hPa70.00 %0.36 km/hSSO2.90 °C-2.00 °C3.10
16:00:004.40 °C1017.70 hPa67.00 %-1.20 °C3.10
15:45:005.40 °C1017.70 hPa65.00 %-0.60 °C3.10
15:30:006.20 °C1017.50 hPa63.00 %-0.30 °C3.10
15:15:006.70 °C1017.60 hPa63.00 %6.84 km/hSSW5.40 °C0.20 °C3.10
15:00:006.80 °C1017.70 hPa64.00 %0.50 °C2.59
14:45:006.90 °C1017.80 hPa64.00 %0.60 °C2.59
14:30:006.60 °C1017.50 hPa64.00 %3.96 km/hSSW6.60 °C0.30 °C2.59
14:15:006.90 °C1017.50 hPa63.00 %0.40 °C2.59
14:00:007.10 °C1017.60 hPa63.00 %0.72 km/hSSW7.10 °C0.50 °C2.59
13:45:007.10 °C1017.70 hPa65.00 %1.00 °C2.07
13:30:006.70 °C1017.90 hPa64.00 %6.48 km/hSW5.50 °C0.40 °C2.07
13:15:006.50 °C1018.00 hPa66.00 %0.60 °C2.07
13:00:006.30 °C1018.10 hPa67.00 %0.60 °C2.07
12:45:006.40 °C1018.40 hPa67.00 %2.52 km/hSSW6.40 °C0.70 °C1.55
12:30:006.70 °C1018.30 hPa67.00 %1.00 °C1.55
12:15:006.80 °C1018.40 hPa72.00 %1.44 km/hW6.80 °C2.10 °C1.55
12:00:006.60 °C1018.30 hPa75.00 %1.08 km/hOSO6.60 °C2.50 °C1.03
11:45:005.90 °C1018.30 hPa77.00 %2.52 km/hS5.90 °C2.20 °C1.03
11:30:005.30 °C1018.50 hPa80.00 %2.10 °C0.51
11:15:004.90 °C1018.60 hPa82.00 %2.10 °C0.51
11:00:003.40 °C1018.70 hPa86.00 %1.30 °C 
10:45:001.90 °C1018.60 hPa88.00 %1.08 km/hS1.90 °C0.10 °C 
10:30:000.60 °C1018.60 hPa89.00 %-1.00 °C 
10:15:00-0.40 °C1018.70 hPa92.00 %-1.70 °C 
10:00:00-2.20 °C1018.80 hPa93.00 %3.96 km/hSSO-2.20 °C-3.30 °C 
09:45:00-4.10 °C1018.70 hPa93.00 %2.16 km/hSSO-4.10 °C-5.20 °C 
09:30:00-5.80 °C1018.60 hPa92.00 %2.16 km/hS-5.80 °C-7.00 °C 
09:15:00-6.70 °C1018.60 hPa91.00 %1.80 km/hS-6.70 °C-8.10 °C 
09:00:00-6.70 °C1018.60 hPa91.00 %2.88 km/hS-6.70 °C-8.10 °C 
08:45:00-6.60 °C1018.70 hPa92.00 %2.16 km/hS-6.60 °C-7.80 °C 
08:30:00-7.00 °C1018.60 hPa91.00 %8.28 km/hS-11.10 °C-8.40 °C 
08:15:00-6.50 °C1018.70 hPa92.00 %2.88 km/hS-6.50 °C-7.70 °C 
08:00:00-6.70 °C1018.60 hPa92.00 %3.24 km/hSSW-6.70 °C-7.90 °C 
07:45:00-6.80 °C1018.70 hPa91.00 %2.88 km/hS-6.80 °C-8.20 °C 
07:30:00-6.70 °C1018.50 hPa91.00 %5.04 km/hSSW-9.20 °C-8.10 °C 
07:15:00-6.10 °C1018.40 hPa92.00 %6.12 km/hS-9.10 °C-7.30 °C 
07:00:00-6.10 °C1018.50 hPa92.00 %3.96 km/hSSW-6.10 °C-7.30 °C 
06:45:00-6.40 °C1018.30 hPa93.00 %7.56 km/hSSW-10.10 °C-7.50 °C 
06:30:00-6.90 °C1018.10 hPa92.00 %11.88 km/hSSO-12.10 °C-8.10 °C 
06:15:00-8.10 °C1018.10 hPa91.00 %15.12 km/hSSW-14.40 °C-9.50 °C 
06:00:00-8.50 °C1018.00 hPa90.00 %6.48 km/hS-12.00 °C-10.00 °C 
05:45:00-8.20 °C1017.90 hPa90.00 %1.08 km/hS-8.20 °C-9.70 °C 
05:30:00-8.20 °C1017.90 hPa90.00 %-9.70 °C 
05:15:00-7.80 °C1017.80 hPa91.00 %3.96 km/hS-7.80 °C-9.20 °C 
05:00:00-7.60 °C1017.80 hPa92.00 %2.88 km/hSSO-7.60 °C-8.80 °C 
04:45:00-8.40 °C1017.90 hPa90.00 %1.80 km/hSSO-8.40 °C-9.90 °C 
04:30:00-8.40 °C1017.90 hPa90.00 %-9.90 °C 
04:15:00-8.40 °C1017.80 hPa90.00 %-9.90 °C 
04:00:00-8.40 °C1017.70 hPa90.00 %1.80 km/hS-8.40 °C-9.90 °C 
03:45:00-8.50 °C1017.70 hPa90.00 %3.24 km/hS-8.50 °C-10.00 °C 
03:30:00-8.20 °C1017.60 hPa90.00 %1.08 km/hS-8.20 °C-9.70 °C 
03:15:00-7.90 °C1017.50 hPa91.00 %2.16 km/hS-7.90 °C-9.30 °C 
03:00:00-8.50 °C1017.50 hPa89.00 %5.04 km/hS-11.30 °C-10.20 °C 
02:45:00-8.70 °C1017.40 hPa89.00 %1.08 km/hS-8.70 °C-10.40 °C 
02:30:00-8.70 °C1017.40 hPa89.00 %1.44 km/hS-8.70 °C-10.40 °C 
02:15:00-8.20 °C1017.50 hPa90.00 %3.60 km/hS-8.20 °C-9.70 °C 
02:00:00-8.20 °C1017.50 hPa90.00 %9.72 km/hS-13.00 °C-9.70 °C 
01:45:00-8.80 °C1017.30 hPa90.00 %3.96 km/hSSW-8.80 °C-10.30 °C 
01:30:00-9.40 °C1017.40 hPa89.00 %5.76 km/hSSO-12.70 °C-11.10 °C 
01:15:00-9.70 °C1017.60 hPa88.00 %1.44 km/hS-9.70 °C-11.50 °C 
01:00:00-9.60 °C1017.50 hPa88.00 %5.04 km/hS-12.50 °C-11.40 °C 
00:45:00-9.70 °C1017.20 hPa88.00 %-11.50 °C 
00:30:00-9.80 °C1017.20 hPa87.00 %1.44 km/hSSO-9.80 °C-11.80 °C 
00:15:00-9.60 °C1017.30 hPa87.00 %3.96 km/hSSW-9.60 °C-11.60 °C 
00:00:00-9.50 °C1017.50 hPa87.00 %2.16 km/hS-9.50 °C-11.50 °C 

Permanenter Link zu dieser Seite: Wetter im Erzgebirge am 29.01.2017
Performance-Info: Die Erstellung der Seite / Statistik(en) / Tabelle(n) erforderte 5 Datenbankserver-Abfrage(n) und dauerte 104 Millisekunden. (Dieser Messwert ist von der Gesamt-Auslastung des Servers abhängig.)
Erzgebirge - Wetter | Erzgebirge - Wetter (Mobilgeräte) | Komplette Klimadatenbank